createdAt,value
2023-02-28T00:00:53.738Z,101723.66
2023-02-28T00:05:57.477Z,101720.00
2023-02-28T00:11:12.288Z,101716.52
2023-02-28T00:16:19.375Z,101718.08
2023-02-28T00:21:23.226Z,101721.83
2023-02-28T00:26:27.238Z,101719.04
2023-02-28T00:31:33.728Z,101720.47
2023-02-28T00:36:37.537Z,101718.33
2023-02-28T00:41:41.876Z,101715.09
2023-02-28T00:46:48.778Z,101710.45
2023-02-28T00:51:52.823Z,101711.90
2023-02-28T00:56:57.121Z,101704.39
2023-02-28T01:02:02.724Z,101706.64
2023-02-28T01:07:06.575Z,101712.95
2023-02-28T01:12:11.055Z,101712.11
2023-02-28T01:17:14.681Z,101708.30
2023-02-28T01:22:19.401Z,101706.66
2023-02-28T01:27:23.069Z,101702.30
2023-02-28T01:32:27.417Z,101703.98
2023-02-28T01:37:31.047Z,101705.67
2023-02-28T01:42:38.016Z,101703.13
2023-02-28T01:47:45.738Z,101698.81
2023-02-28T01:52:50.139Z,101698.09
2023-02-28T01:57:56.942Z,101696.40
2023-02-28T02:03:10.726Z,101697.95
2023-02-28T02:08:27.113Z,101699.14
2023-02-28T02:13:33.874Z,101696.59
2023-02-28T02:19:15.244Z,101696.73
2023-02-28T02:24:52.298Z,101694.86
2023-02-28T02:30:43.133Z,101695.36
2023-02-28T02:36:08.920Z,101690.67
2023-02-28T02:41:26.075Z,101691.87
2023-02-28T02:46:36.602Z,101687.95
2023-02-28T02:51:42.329Z,101690.52
2023-02-28T02:56:48.908Z,101688.48
2023-02-28T03:01:58.941Z,101690.75
2023-02-28T03:07:02.768Z,101689.07
2023-02-28T03:12:10.742Z,101690.05
2023-02-28T03:17:24.845Z,101690.38
2023-02-28T03:22:58.853Z,101697.64
2023-02-28T03:28:17.880Z,101695.11
2023-02-28T03:33:40.898Z,101697.78
2023-02-28T03:39:04.167Z,101704.18
2023-02-28T03:44:16.629Z,101705.16
2023-02-28T03:49:24.199Z,101709.09
2023-02-28T03:54:33.428Z,101704.63
2023-02-28T04:00:00.165Z,101707.40
2023-02-28T04:05:04.762Z,101712.13
2023-02-28T04:10:08.930Z,101717.45
2023-02-28T04:15:12.732Z,101720.66
2023-02-28T04:20:16.867Z,101718.83
2023-02-28T04:25:21.374Z,101724.48
2023-02-28T04:30:27.305Z,101728.20
2023-02-28T04:35:31.828Z,101736.88
2023-02-28T04:40:37.191Z,101733.80
2023-02-28T04:45:42.432Z,101734.03
2023-02-28T04:50:46.481Z,101738.33
2023-02-28T04:55:51.660Z,101735.06
2023-02-28T05:01:13.920Z,101735.38
2023-02-28T05:06:19.240Z,101735.17
2023-02-28T05:11:26.855Z,101735.19
2023-02-28T05:16:32.513Z,101740.95
2023-02-28T05:21:38.926Z,101741.85
2023-02-28T05:26:44.022Z,101743.59
2023-02-28T05:31:48.821Z,101742.35
2023-02-28T05:36:52.679Z,101746.99
2023-02-28T05:41:56.470Z,101754.58
2023-02-28T05:47:00.108Z,101762.29
2023-02-28T05:52:04.881Z,101769.96
2023-02-28T05:57:18.920Z,101783.41
2023-02-28T06:02:28.026Z,101777.88
2023-02-28T06:07:31.864Z,101785.63
2023-02-28T06:12:36.442Z,101788.96
2023-02-28T06:17:41.486Z,101791.09
2023-02-28T06:22:45.692Z,101792.73
2023-02-28T06:27:49.981Z,101799.23
2023-02-28T06:32:54.644Z,101803.21
2023-02-28T06:37:58.748Z,101810.08
2023-02-28T06:43:03.381Z,101813.11
2023-02-28T06:48:07.550Z,101812.02
2023-02-28T06:53:11.512Z,101818.41
2023-02-28T06:58:20.337Z,101820.17
2023-02-28T07:03:25.452Z,101821.41
2023-02-28T07:08:29.463Z,101818.38
2023-02-28T07:13:33.225Z,101817.77
2023-02-28T07:18:38.058Z,101820.40
2023-02-28T07:23:43.079Z,101826.77
2023-02-28T07:28:48.966Z,101828.20
2023-02-28T07:33:54.941Z,101831.02
2023-02-28T07:38:59.973Z,101829.96
2023-02-28T07:44:04.908Z,101833.88
2023-02-28T07:49:09.774Z,101838.70
2023-02-28T07:54:14.054Z,101838.29
2023-02-28T07:59:18.564Z,101835.43
2023-02-28T08:04:23.154Z,101832.84
2023-02-28T08:09:28.239Z,101831.80
2023-02-28T08:14:32.249Z,101834.73
2023-02-28T08:19:35.983Z,101832.02
2023-02-28T08:24:41.407Z,101829.77
2023-02-28T08:29:45.196Z,101830.60
2023-02-28T08:34:49.278Z,101829.95
2023-02-28T08:39:56.224Z,101829.69
2023-02-28T08:45:00.317Z,101829.70
2023-02-28T08:50:06.709Z,101831.04
2023-02-28T08:55:11.419Z,101832.16
2023-02-28T09:00:15.828Z,101828.81
2023-02-28T09:05:19.441Z,101831.48
2023-02-28T09:10:23.063Z,101827.88
2023-02-28T09:15:26.605Z,101824.02
2023-02-28T09:20:30.142Z,101820.60
2023-02-28T09:25:34.288Z,101824.39
2023-02-28T09:30:38.156Z,101815.15
2023-02-28T09:35:41.855Z,101816.50
2023-02-28T09:41:14.669Z,101818.93
2023-02-28T09:46:42.082Z,101812.95
2023-02-28T09:51:50.699Z,101816.77
2023-02-28T09:56:56.872Z,101813.64
2023-02-28T10:02:39.524Z,101816.63
2023-02-28T10:08:00.913Z,101821.49
2023-02-28T10:13:08.528Z,101823.33
2023-02-28T10:18:20.371Z,101823.56
2023-02-28T10:23:26.730Z,101819.96
2023-02-28T10:28:32.226Z,101815.48
2023-02-28T10:33:37.223Z,101816.21
2023-02-28T10:38:42.257Z,101814.48
2023-02-28T10:43:49.202Z,101815.26
2023-02-28T10:49:04.476Z,101807.48
2023-02-28T10:54:18.022Z,101807.54
2023-02-28T10:59:32.354Z,101807.42
2023-02-28T11:04:39.234Z,101799.77
2023-02-28T11:09:44.636Z,101795.48
2023-02-28T11:14:51.589Z,101792.21
2023-02-28T11:19:57.816Z,101791.36
2023-02-28T11:25:03.890Z,101790.43
2023-02-28T11:30:43.462Z,101788.16
2023-02-28T11:35:50.211Z,101790.27
2023-02-28T11:40:59.950Z,101794.52
2023-02-28T11:46:42.970Z,101792.77
2023-02-28T11:51:51.468Z,101782.09
2023-02-28T11:57:02.178Z,101777.64
2023-02-28T12:02:35.448Z,101761.34
2023-02-28T12:07:51.242Z,101758.74
2023-02-28T12:13:13.793Z,101751.84
2023-02-28T12:19:22.456Z,101749.83
2023-02-28T12:24:50.593Z,101742.98
2023-02-28T12:30:20.317Z,101738.06
2023-02-28T12:35:28.174Z,101735.12
2023-02-28T12:40:56.305Z,101726.36
2023-02-28T12:46:05.919Z,101718.34
2023-02-28T12:51:09.871Z,101716.64
2023-02-28T12:56:39.674Z,101719.89
2023-02-28T13:02:16.145Z,101712.60
2023-02-28T13:07:34.898Z,101707.39
2023-02-28T13:12:52.410Z,101710.05
2023-02-28T13:17:58.567Z,101707.34
2023-02-28T13:23:06.947Z,101711.59
2023-02-28T13:28:14.800Z,101713.23
2023-02-28T13:34:17.058Z,101708.48
2023-02-28T13:39:56.619Z,101713.06
2023-02-28T13:45:03.372Z,101703.52
2023-02-28T13:50:30.680Z,101699.78
2023-02-28T13:56:19.625Z,101697.17
2023-02-28T14:01:47.115Z,101691.91
2023-02-28T14:06:56.461Z,101685.16
2023-02-28T14:12:38.862Z,101678.87
2023-02-28T14:17:42.471Z,101674.59
2023-02-28T14:22:56.533Z,101670.16
2023-02-28T14:28:10.538Z,101669.52
2023-02-28T14:33:51.668Z,101666.62
2023-02-28T14:39:13.520Z,101662.98
2023-02-28T14:44:28.634Z,101660.60
2023-02-28T14:49:35.960Z,101658.29
2023-02-28T14:54:40.348Z,101655.73
2023-02-28T14:59:44.159Z,101658.64
2023-02-28T15:05:00.384Z,101659.72
2023-02-28T15:10:44.600Z,101663.09
2023-02-28T15:16:03.088Z,101666.73
2023-02-28T15:21:51.932Z,101664.70
2023-02-28T15:27:01.704Z,101664.09
2023-02-28T15:32:09.470Z,101660.48
2023-02-28T15:37:35.352Z,101659.62
2023-02-28T15:42:39.552Z,101654.30
2023-02-28T15:47:47.625Z,101655.27
2023-02-28T15:52:51.953Z,101654.89
2023-02-28T15:58:00.131Z,101653.08
2023-02-28T16:03:24.224Z,101653.09
2023-02-28T16:08:28.945Z,101660.37
2023-02-28T16:13:33.898Z,101661.05
2023-02-28T16:18:40.596Z,101665.31
2023-02-28T16:23:44.355Z,101670.27
2023-02-28T16:28:48.491Z,101673.10
2023-02-28T16:33:56.882Z,101674.80
2023-02-28T16:39:08.584Z,101675.46
2023-02-28T16:44:36.989Z,101674.66
2023-02-28T16:49:52.383Z,101675.63
2023-02-28T16:55:03.363Z,101678.39
2023-02-28T17:00:13.939Z,101683.98
2023-02-28T17:05:18.681Z,101692.84
2023-02-28T17:10:25.512Z,101693.48
2023-02-28T17:15:29.277Z,101693.11
2023-02-28T17:20:33.769Z,101698.48
2023-02-28T17:25:38.235Z,101701.86
2023-02-28T17:30:48.971Z,101702.48
2023-02-28T17:35:53.915Z,101703.69
2023-02-28T17:40:59.357Z,101699.73
2023-02-28T17:46:03.656Z,101698.46
2023-02-28T17:51:11.406Z,101700.68
2023-02-28T17:56:29.257Z,101702.40
2023-02-28T18:01:34.023Z,101702.01
2023-02-28T18:06:53.274Z,101706.48
2023-02-28T18:11:59.134Z,101713.94
2023-02-28T18:17:09.216Z,101713.85
2023-02-28T18:22:14.152Z,101715.27
2023-02-28T18:27:23.819Z,101709.91
2023-02-28T18:32:33.498Z,101708.58
2023-02-28T18:37:44.277Z,101707.96
2023-02-28T18:43:00.522Z,101709.30
2023-02-28T18:48:13.781Z,101713.54
2023-02-28T18:53:25.884Z,101712.33
2023-02-28T18:58:34.693Z,101717.95
2023-02-28T19:03:47.269Z,101721.50
2023-02-28T19:08:58.752Z,101718.55
2023-02-28T19:14:05.534Z,101720.49
2023-02-28T19:19:12.337Z,101717.20
2023-02-28T19:24:20.287Z,101719.13
2023-02-28T19:29:27.447Z,101718.84
2023-02-28T19:34:35.566Z,101722.11
2023-02-28T19:39:49.182Z,101723.39
2023-02-28T19:45:00.567Z,101721.71
2023-02-28T19:50:07.416Z,101725.38
2023-02-28T19:55:14.443Z,101728.61
2023-02-28T20:00:25.794Z,101733.25
2023-02-28T20:05:33.260Z,101728.37
2023-02-28T20:10:42.191Z,101723.89
2023-02-28T20:15:47.523Z,101723.18
2023-02-28T20:20:55.131Z,101719.16
2023-02-28T20:26:02.567Z,101716.86
2023-02-28T20:31:20.933Z,101717.65
2023-02-28T20:36:27.764Z,101710.97
2023-02-28T20:41:35.523Z,101717.54
2023-02-28T20:46:52.436Z,101720.54
2023-02-28T20:52:01.231Z,101717.39
2023-02-28T20:57:10.072Z,101719.98
2023-02-28T21:02:19.573Z,101718.56
2023-02-28T21:07:26.529Z,101724.00
2023-02-28T21:12:33.254Z,101726.00
2023-02-28T21:17:37.975Z,101728.93
2023-02-28T21:22:42.533Z,101723.86
2023-02-28T21:27:46.351Z,101718.25
2023-02-28T21:32:51.648Z,101711.84
2023-02-28T21:37:57.412Z,101714.11
2023-02-28T21:43:01.248Z,101713.46
2023-02-28T21:48:05.208Z,101704.95
2023-02-28T21:53:13.342Z,101710.08
2023-02-28T21:58:17.276Z,101710.77
2023-02-28T22:03:24.697Z,101714.01
2023-02-28T22:08:28.725Z,101720.46
2023-02-28T22:13:34.180Z,101724.89
2023-02-28T22:23:56.832Z,101732.40
2023-02-28T22:29:01.531Z,101733.26
2023-02-28T22:34:08.758Z,101740.91
2023-02-28T22:39:12.782Z,101740.73
2023-02-28T22:44:19.474Z,101747.01
2023-02-28T22:49:25.462Z,101754.67
2023-02-28T22:54:29.795Z,101759.48
2023-02-28T22:59:34.133Z,101754.75
2023-02-28T23:05:34.423Z,101753.75
2023-02-28T23:10:42.254Z,101758.01
2023-02-28T23:15:48.343Z,101759.70
2023-02-28T23:20:52.272Z,101751.72
2023-02-28T23:25:56.143Z,101743.58
2023-02-28T23:31:05.073Z,101747.98
2023-02-28T23:36:16.033Z,101750.54
2023-02-28T23:41:22.548Z,101756.83
2023-02-28T23:46:28.889Z,101750.02
2023-02-28T23:51:33.263Z,101740.69
2023-02-28T23:56:37.248Z,101746.46
